sensor_id;sensor_type;location;lat;lon;timestamp;P1;durP1;ratioP1;P2;durP2;ratioP2
51780;SDS011;37844;57.126;24.288;2023-07-29T00:00:56;15.70;;;6.75;;
51780;SDS011;37844;57.126;24.288;2023-07-29T00:03:40;15.52;;;6.85;;
51780;SDS011;37844;57.126;24.288;2023-07-29T00:06:24;8.52;;;5.43;;
51780;SDS011;37844;57.126;24.288;2023-07-29T00:09:08;10.02;;;6.00;;
51780;SDS011;37844;57.126;24.288;2023-07-29T00:11:52;15.88;;;6.82;;
51780;SDS011;37844;57.126;24.288;2023-07-29T00:14:36;11.57;;;6.70;;
51780;SDS011;37844;57.126;24.288;2023-07-29T00:17:20;14.95;;;7.53;;
51780;SDS011;37844;57.126;24.288;2023-07-29T00:20:05;11.68;;;7.25;;
51780;SDS011;37844;57.126;24.288;2023-07-29T00:22:50;10.45;;;6.15;;
51780;SDS011;37844;57.126;24.288;2023-07-29T00:25:36;11.48;;;7.30;;
51780;SDS011;37844;57.126;24.288;2023-07-29T00:28:20;13.05;;;6.63;;
51780;SDS011;37844;57.126;24.288;2023-07-29T00:31:04;10.75;;;6.00;;
51780;SDS011;37844;57.126;24.288;2023-07-29T00:33:48;16.95;;;6.43;;
51780;SDS011;37844;57.126;24.288;2023-07-29T00:36:32;12.18;;;6.20;;
51780;SDS011;37844;57.126;24.288;2023-07-29T00:39:16;12.98;;;6.22;;
51780;SDS011;37844;57.126;24.288;2023-07-29T00:42:00;23.92;;;6.78;;
51780;SDS011;37844;57.126;24.288;2023-07-29T00:44:44;14.13;;;6.63;;
51780;SDS011;37844;57.126;24.288;2023-07-29T00:47:28;10.75;;;6.32;;
51780;SDS011;37844;57.126;24.288;2023-07-29T00:50:12;12.30;;;6.20;;
51780;SDS011;37844;57.126;24.288;2023-07-29T00:52:58;14.00;;;6.80;;
51780;SDS011;37844;57.126;24.288;2023-07-29T00:55:42;8.55;;;6.32;;
51780;SDS011;37844;57.126;24.288;2023-07-29T00:58:26;14.07;;;6.80;;
51780;SDS011;37844;57.126;24.288;2023-07-29T01:01:10;20.30;;;7.68;;
51780;SDS011;37844;57.126;24.288;2023-07-29T01:03:55;13.40;;;6.57;;
51780;SDS011;37844;57.126;24.288;2023-07-29T01:06:50;12.07;;;7.38;;
51780;SDS011;37844;57.126;24.288;2023-07-29T01:12:59;15.15;;;6.88;;
51780;SDS011;37844;57.126;24.288;2023-07-29T01:17:00;10.48;;;6.10;;
51780;SDS011;37844;57.126;24.288;2023-07-29T01:22:38;10.43;;;6.32;;
51780;SDS011;37844;57.126;24.288;2023-07-29T01:25:23;12.13;;;7.35;;
51780;SDS011;37844;57.126;24.288;2023-07-29T01:28:07;12.80;;;7.22;;
51780;SDS011;37844;57.126;24.288;2023-07-29T01:30:55;12.95;;;7.22;;
51780;SDS011;37844;57.126;24.288;2023-07-29T01:33:48;15.55;;;6.78;;
51780;SDS011;37844;57.126;24.288;2023-07-29T01:36:46;10.93;;;6.35;;
51780;SDS011;37844;57.126;24.288;2023-07-29T01:39:34;15.30;;;8.27;;
51780;SDS011;37844;57.126;24.288;2023-07-29T01:42:21;13.70;;;6.82;;
51780;SDS011;37844;57.126;24.288;2023-07-29T01:45:06;13.50;;;6.82;;
51780;SDS011;37844;57.126;24.288;2023-07-29T01:47:53;19.15;;;7.53;;
51780;SDS011;37844;57.126;24.288;2023-07-29T01:50:37;13.05;;;7.63;;
51780;SDS011;37844;57.126;24.288;2023-07-29T01:53:21;13.88;;;7.40;;
51780;SDS011;37844;57.126;24.288;2023-07-29T01:56:06;22.38;;;7.85;;
51780;SDS011;37844;57.126;24.288;2023-07-29T01:58:49;17.17;;;8.57;;
51780;SDS011;37844;57.126;24.288;2023-07-29T02:01:33;18.77;;;6.82;;
51780;SDS011;37844;57.126;24.288;2023-07-29T02:04:17;12.75;;;6.93;;
51780;SDS011;37844;57.126;24.288;2023-07-29T02:07:01;15.07;;;8.15;;
51780;SDS011;37844;57.126;24.288;2023-07-29T02:09:45;16.55;;;6.80;;
51780;SDS011;37844;57.126;24.288;2023-07-29T02:12:29;11.55;;;7.43;;
51780;SDS011;37844;57.126;24.288;2023-07-29T02:15:16;9.48;;;5.80;;
51780;SDS011;37844;57.126;24.288;2023-07-29T02:18:00;12.70;;;7.68;;
51780;SDS011;37844;57.126;24.288;2023-07-29T02:20:45;11.73;;;7.25;;
51780;SDS011;37844;57.126;24.288;2023-07-29T02:23:32;11.70;;;5.88;;
51780;SDS011;37844;57.126;24.288;2023-07-29T02:26:17;14.80;;;6.88;;
51780;SDS011;37844;57.126;24.288;2023-07-29T02:29:01;12.68;;;7.00;;
51780;SDS011;37844;57.126;24.288;2023-07-29T02:31:45;31.67;;;7.75;;
51780;SDS011;37844;57.126;24.288;2023-07-29T02:34:29;12.07;;;6.63;;
51780;SDS011;37844;57.126;24.288;2023-07-29T02:37:13;11.75;;;6.82;;
51780;SDS011;37844;57.126;24.288;2023-07-29T02:39:57;15.00;;;7.75;;
51780;SDS011;37844;57.126;24.288;2023-07-29T02:42:41;12.25;;;6.82;;
51780;SDS011;37844;57.126;24.288;2023-07-29T02:45:25;11.93;;;7.25;;
51780;SDS011;37844;57.126;24.288;2023-07-29T02:48:09;8.95;;;6.60;;
51780;SDS011;37844;57.126;24.288;2023-07-29T02:50:54;15.10;;;7.28;;
51780;SDS011;37844;57.126;24.288;2023-07-29T02:53:38;14.93;;;7.55;;
51780;SDS011;37844;57.126;24.288;2023-07-29T02:56:22;11.23;;;6.18;;
51780;SDS011;37844;57.126;24.288;2023-07-29T02:59:06;16.50;;;6.80;;
51780;SDS011;37844;57.126;24.288;2023-07-29T03:01:50;9.52;;;7.43;;
51780;SDS011;37844;57.126;24.288;2023-07-29T03:04:35;12.45;;;6.75;;
51780;SDS011;37844;57.126;24.288;2023-07-29T03:07:19;10.07;;;6.78;;
51780;SDS011;37844;57.126;24.288;2023-07-29T03:10:04;11.20;;;7.35;;
51780;SDS011;37844;57.126;24.288;2023-07-29T03:12:49;8.45;;;6.18;;
51780;SDS011;37844;57.126;24.288;2023-07-29T03:15:33;12.13;;;7.60;;
51780;SDS011;37844;57.126;24.288;2023-07-29T03:18:18;17.15;;;8.15;;
51780;SDS011;37844;57.126;24.288;2023-07-29T03:21:02;11.68;;;7.10;;
51780;SDS011;37844;57.126;24.288;2023-07-29T03:23:47;15.63;;;8.65;;
51780;SDS011;37844;57.126;24.288;2023-07-29T03:26:31;11.68;;;7.45;;
51780;SDS011;37844;57.126;24.288;2023-07-29T03:29:15;14.30;;;8.00;;
51780;SDS011;37844;57.126;24.288;2023-07-29T03:31:59;11.73;;;7.18;;
51780;SDS011;37844;57.126;24.288;2023-07-29T03:34:43;21.83;;;7.22;;
51780;SDS011;37844;57.126;24.288;2023-07-29T03:37:27;14.38;;;7.72;;
51780;SDS011;37844;57.126;24.288;2023-07-29T03:40:11;11.10;;;7.43;;
51780;SDS011;37844;57.126;24.288;2023-07-29T03:42:55;13.73;;;7.53;;
51780;SDS011;37844;57.126;24.288;2023-07-29T03:45:40;11.90;;;7.03;;
51780;SDS011;37844;57.126;24.288;2023-07-29T03:48:24;15.35;;;7.57;;
51780;SDS011;37844;57.126;24.288;2023-07-29T03:51:08;9.90;;;6.50;;
51780;SDS011;37844;57.126;24.288;2023-07-29T03:53:52;11.23;;;6.85;;
51780;SDS011;37844;57.126;24.288;2023-07-29T03:56:36;12.32;;;7.07;;
51780;SDS011;37844;57.126;24.288;2023-07-29T03:59:20;11.23;;;7.38;;
51780;SDS011;37844;57.126;24.288;2023-07-29T04:02:06;12.80;;;7.47;;
51780;SDS011;37844;57.126;24.288;2023-07-29T04:04:50;12.68;;;6.95;;
51780;SDS011;37844;57.126;24.288;2023-07-29T04:07:35;14.30;;;7.18;;
51780;SDS011;37844;57.126;24.288;2023-07-29T04:10:19;23.67;;;11.90;;
51780;SDS011;37844;57.126;24.288;2023-07-29T04:13:04;14.52;;;6.85;;
51780;SDS011;37844;57.126;24.288;2023-07-29T04:15:48;16.40;;;7.90;;
51780;SDS011;37844;57.126;24.288;2023-07-29T04:18:32;15.25;;;7.85;;
51780;SDS011;37844;57.126;24.288;2023-07-29T04:21:17;11.55;;;7.20;;
51780;SDS011;37844;57.126;24.288;2023-07-29T04:24:01;12.60;;;8.40;;
51780;SDS011;37844;57.126;24.288;2023-07-29T04:26:45;11.20;;;6.60;;
51780;SDS011;37844;57.126;24.288;2023-07-29T04:29:30;12.48;;;6.32;;
51780;SDS011;37844;57.126;24.288;2023-07-29T04:32:14;15.57;;;8.13;;
51780;SDS011;37844;57.126;24.288;2023-07-29T04:34:57;10.07;;;6.78;;
51780;SDS011;37844;57.126;24.288;2023-07-29T04:37:41;14.18;;;8.48;;
51780;SDS011;37844;57.126;24.288;2023-07-29T04:40:26;13.05;;;8.82;;
51780;SDS011;37844;57.126;24.288;2023-07-29T04:43:09;16.50;;;8.15;;
51780;SDS011;37844;57.126;24.288;2023-07-29T04:45:54;10.43;;;6.93;;
51780;SDS011;37844;57.126;24.288;2023-07-29T04:48:38;9.82;;;7.18;;
51780;SDS011;37844;57.126;24.288;2023-07-29T04:51:23;12.05;;;7.45;;
51780;SDS011;37844;57.126;24.288;2023-07-29T04:54:07;12.52;;;8.02;;
51780;SDS011;37844;57.126;24.288;2023-07-29T04:56:51;11.45;;;8.25;;
51780;SDS011;37844;57.126;24.288;2023-07-29T04:59:35;18.27;;;8.48;;
51780;SDS011;37844;57.126;24.288;2023-07-29T05:02:19;19.15;;;9.00;;
51780;SDS011;37844;57.126;24.288;2023-07-29T05:05:04;17.77;;;8.02;;
51780;SDS011;37844;57.126;24.288;2023-07-29T05:07:49;17.27;;;8.00;;
51780;SDS011;37844;57.126;24.288;2023-07-29T05:10:34;17.48;;;9.77;;
51780;SDS011;37844;57.126;24.288;2023-07-29T05:13:18;11.02;;;7.35;;
51780;SDS011;37844;57.126;24.288;2023-07-29T05:16:02;14.02;;;8.05;;
51780;SDS011;37844;57.126;24.288;2023-07-29T05:18:50;11.80;;;7.72;;
51780;SDS011;37844;57.126;24.288;2023-07-29T05:21:34;16.35;;;7.82;;
51780;SDS011;37844;57.126;24.288;2023-07-29T05:24:18;10.98;;;7.80;;
51780;SDS011;37844;57.126;24.288;2023-07-29T05:27:02;10.35;;;7.82;;
51780;SDS011;37844;57.126;24.288;2023-07-29T05:29:46;18.35;;;10.18;;
51780;SDS011;37844;57.126;24.288;2023-07-29T05:32:30;14.95;;;9.40;;
51780;SDS011;37844;57.126;24.288;2023-07-29T05:35:14;21.95;;;11.00;;
51780;SDS011;37844;57.126;24.288;2023-07-29T05:37:58;19.30;;;10.77;;
51780;SDS011;37844;57.126;24.288;2023-07-29T05:40:42;17.17;;;11.60;;
51780;SDS011;37844;57.126;24.288;2023-07-29T05:43:26;13.57;;;10.93;;
51780;SDS011;37844;57.126;24.288;2023-07-29T05:46:11;20.55;;;11.20;;
51780;SDS011;37844;57.126;24.288;2023-07-29T05:48:55;13.18;;;10.25;;
51780;SDS011;37844;57.126;24.288;2023-07-29T05:51:39;17.50;;;12.75;;
51780;SDS011;37844;57.126;24.288;2023-07-29T05:54:23;19.88;;;11.40;;
51780;SDS011;37844;57.126;24.288;2023-07-29T05:57:07;20.20;;;11.88;;
51780;SDS011;37844;57.126;24.288;2023-07-29T05:59:51;13.50;;;10.10;;
51780;SDS011;37844;57.126;24.288;2023-07-29T06:02:35;28.67;;;19.83;;
51780;SDS011;37844;57.126;24.288;2023-07-29T06:05:19;16.08;;;10.02;;
51780;SDS011;37844;57.126;24.288;2023-07-29T06:08:03;15.80;;;9.50;;
51780;SDS011;37844;57.126;24.288;2023-07-29T06:10:48;13.80;;;9.35;;
51780;SDS011;37844;57.126;24.288;2023-07-29T06:13:32;15.68;;;9.60;;
51780;SDS011;37844;57.126;24.288;2023-07-29T06:16:17;19.27;;;10.65;;
51780;SDS011;37844;57.126;24.288;2023-07-29T06:19:01;14.18;;;8.32;;
51780;SDS011;37844;57.126;24.288;2023-07-29T06:21:45;11.50;;;7.68;;
51780;SDS011;37844;57.126;24.288;2023-07-29T06:24:29;12.52;;;6.95;;
51780;SDS011;37844;57.126;24.288;2023-07-29T06:27:13;9.82;;;5.85;;
51780;SDS011;37844;57.126;24.288;2023-07-29T06:29:57;12.05;;;4.38;;
51780;SDS011;37844;57.126;24.288;2023-07-29T06:32:41;8.23;;;4.40;;
51780;SDS011;37844;57.126;24.288;2023-07-29T06:35:25;7.90;;;4.88;;
51780;SDS011;37844;57.126;24.288;2023-07-29T06:38:09;12.57;;;5.15;;
51780;SDS011;37844;57.126;24.288;2023-07-29T06:40:53;19.00;;;5.03;;
51780;SDS011;37844;57.126;24.288;2023-07-29T06:43:37;5.57;;;3.33;;
51780;SDS011;37844;57.126;24.288;2023-07-29T06:46:22;6.65;;;3.25;;
51780;SDS011;37844;57.126;24.288;2023-07-29T06:49:06;5.53;;;2.80;;
51780;SDS011;37844;57.126;24.288;2023-07-29T06:51:49;6.25;;;2.50;;
51780;SDS011;37844;57.126;24.288;2023-07-29T06:54:34;5.05;;;2.45;;
51780;SDS011;37844;57.126;24.288;2023-07-29T06:57:17;9.57;;;3.33;;
51780;SDS011;37844;57.126;24.288;2023-07-29T07:00:02;4.15;;;2.58;;
51780;SDS011;37844;57.126;24.288;2023-07-29T07:02:47;5.97;;;2.33;;
51780;SDS011;37844;57.126;24.288;2023-07-29T07:05:37;4.22;;;2.38;;
51780;SDS011;37844;57.126;24.288;2023-07-29T07:08:21;3.83;;;1.85;;
51780;SDS011;37844;57.126;24.288;2023-07-29T07:11:05;3.58;;;2.03;;
51780;SDS011;37844;57.126;24.288;2023-07-29T07:13:49;4.05;;;1.98;;
51780;SDS011;37844;57.126;24.288;2023-07-29T07:16:33;7.35;;;2.72;;
51780;SDS011;37844;57.126;24.288;2023-07-29T07:19:20;4.65;;;2.10;;
51780;SDS011;37844;57.126;24.288;2023-07-29T07:22:04;6.22;;;2.25;;
51780;SDS011;37844;57.126;24.288;2023-07-29T07:24:48;6.30;;;2.47;;
51780;SDS011;37844;57.126;24.288;2023-07-29T07:27:32;3.45;;;2.30;;
51780;SDS011;37844;57.126;24.288;2023-07-29T07:30:16;3.30;;;2.20;;
51780;SDS011;37844;57.126;24.288;2023-07-29T07:33:00;3.38;;;1.90;;
51780;SDS011;37844;57.126;24.288;2023-07-29T07:35:44;4.13;;;1.75;;
51780;SDS011;37844;57.126;24.288;2023-07-29T07:38:28;5.15;;;2.05;;
51780;SDS011;37844;57.126;24.288;2023-07-29T07:41:12;8.95;;;2.08;;
51780;SDS011;37844;57.126;24.288;2023-07-29T07:43:56;3.63;;;1.73;;
51780;SDS011;37844;57.126;24.288;2023-07-29T07:46:40;5.07;;;2.17;;
51780;SDS011;37844;57.126;24.288;2023-07-29T07:49:25;1.85;;;1.50;;
51780;SDS011;37844;57.126;24.288;2023-07-29T07:52:09;4.07;;;1.80;;
51780;SDS011;37844;57.126;24.288;2023-07-29T07:54:53;4.63;;;2.25;;
51780;SDS011;37844;57.126;24.288;2023-07-29T07:57:38;6.70;;;1.83;;
51780;SDS011;37844;57.126;24.288;2023-07-29T08:00:22;2.45;;;1.75;;
51780;SDS011;37844;57.126;24.288;2023-07-29T08:03:06;3.78;;;1.98;;
51780;SDS011;37844;57.126;24.288;2023-07-29T08:05:50;3.05;;;1.73;;
51780;SDS011;37844;57.126;24.288;2023-07-29T08:08:34;2.67;;;1.75;;
51780;SDS011;37844;57.126;24.288;2023-07-29T08:11:18;2.67;;;1.60;;
51780;SDS011;37844;57.126;24.288;2023-07-29T08:14:02;7.93;;;1.95;;
51780;SDS011;37844;57.126;24.288;2023-07-29T08:16:46;3.38;;;2.00;;
51780;SDS011;37844;57.126;24.288;2023-07-29T08:19:30;3.30;;;2.03;;
51780;SDS011;37844;57.126;24.288;2023-07-29T08:22:14;2.83;;;2.10;;
51780;SDS011;37844;57.126;24.288;2023-07-29T08:25:00;5.65;;;2.35;;
51780;SDS011;37844;57.126;24.288;2023-07-29T08:27:44;7.50;;;2.38;;
51780;SDS011;37844;57.126;24.288;2023-07-29T08:30:29;4.93;;;2.13;;
51780;SDS011;37844;57.126;24.288;2023-07-29T08:33:13;9.27;;;2.60;;
51780;SDS011;37844;57.126;24.288;2023-07-29T08:35:57;5.88;;;2.25;;
51780;SDS011;37844;57.126;24.288;2023-07-29T08:38:41;4.32;;;2.10;;
51780;SDS011;37844;57.126;24.288;2023-07-29T08:41:26;4.10;;;2.20;;
51780;SDS011;37844;57.126;24.288;2023-07-29T08:44:41;3.28;;;2.13;;
51780;SDS011;37844;57.126;24.288;2023-07-29T08:47:26;3.92;;;2.00;;
51780;SDS011;37844;57.126;24.288;2023-07-29T08:50:11;3.47;;;1.88;;
51780;SDS011;37844;57.126;24.288;2023-07-29T08:52:56;5.25;;;2.00;;
51780;SDS011;37844;57.126;24.288;2023-07-29T08:55:41;8.57;;;2.35;;
51780;SDS011;37844;57.126;24.288;2023-07-29T08:58:26;4.93;;;2.15;;
51780;SDS011;37844;57.126;24.288;2023-07-29T09:01:11;3.70;;;2.22;;
51780;SDS011;37844;57.126;24.288;2023-07-29T09:03:56;6.25;;;2.53;;
51780;SDS011;37844;57.126;24.288;2023-07-29T09:06:40;4.38;;;2.20;;
51780;SDS011;37844;57.126;24.288;2023-07-29T09:09:27;3.20;;;1.58;;
51780;SDS011;37844;57.126;24.288;2023-07-29T09:12:11;5.40;;;2.08;;
51780;SDS011;37844;57.126;24.288;2023-07-29T09:14:55;3.20;;;2.13;;
51780;SDS011;37844;57.126;24.288;2023-07-29T09:17:40;4.07;;;2.17;;
51780;SDS011;37844;57.126;24.288;2023-07-29T09:20:25;2.88;;;1.60;;
51780;SDS011;37844;57.126;24.288;2023-07-29T09:23:12;3.10;;;1.65;;
51780;SDS011;37844;57.126;24.288;2023-07-29T09:26:04;2.75;;;1.70;;
51780;SDS011;37844;57.126;24.288;2023-07-29T09:28:51;4.00;;;2.03;;
51780;SDS011;37844;57.126;24.288;2023-07-29T09:31:37;2.58;;;1.63;;
51780;SDS011;37844;57.126;24.288;2023-07-29T09:34:21;3.15;;;1.80;;
51780;SDS011;37844;57.126;24.288;2023-07-29T09:37:05;2.83;;;1.60;;
51780;SDS011;37844;57.126;24.288;2023-07-29T09:39:50;1.75;;;1.33;;
51780;SDS011;37844;57.126;24.288;2023-07-29T09:42:34;6.30;;;1.90;;
51780;SDS011;37844;57.126;24.288;2023-07-29T09:45:22;3.17;;;1.30;;
51780;SDS011;37844;57.126;24.288;2023-07-29T09:48:06;3.65;;;1.73;;
51780;SDS011;37844;57.126;24.288;2023-07-29T09:50:54;2.88;;;1.73;;
51780;SDS011;37844;57.126;24.288;2023-07-29T09:53:40;3.22;;;1.40;;
51780;SDS011;37844;57.126;24.288;2023-07-29T09:56:26;2.90;;;1.63;;
51780;SDS011;37844;57.126;24.288;2023-07-29T09:59:11;3.08;;;1.40;;
51780;SDS011;37844;57.126;24.288;2023-07-29T10:01:55;3.40;;;1.52;;
51780;SDS011;37844;57.126;24.288;2023-07-29T10:04:43;3.25;;;1.80;;
51780;SDS011;37844;57.126;24.288;2023-07-29T10:07:29;3.05;;;1.42;;
51780;SDS011;37844;57.126;24.288;2023-07-29T10:10:14;1.73;;;1.27;;
51780;SDS011;37844;57.126;24.288;2023-07-29T10:12:59;1.27;;;1.02;;
51780;SDS011;37844;57.126;24.288;2023-07-29T10:15:45;7.07;;;1.65;;
51780;SDS011;37844;57.126;24.288;2023-07-29T10:18:31;5.93;;;1.83;;
51780;SDS011;37844;57.126;24.288;2023-07-29T10:21:16;1.65;;;0.90;;
51780;SDS011;37844;57.126;24.288;2023-07-29T10:24:01;1.65;;;1.02;;
51780;SDS011;37844;57.126;24.288;2023-07-29T10:26:49;2.58;;;1.33;;
51780;SDS011;37844;57.126;24.288;2023-07-29T10:29:36;1.00;;;0.90;;
51780;SDS011;37844;57.126;24.288;2023-07-29T10:32:24;1.92;;;1.10;;
51780;SDS011;37844;57.126;24.288;2023-07-29T10:35:12;1.98;;;1.20;;
51780;SDS011;37844;57.126;24.288;2023-07-29T10:37:57;2.30;;;1.42;;
51780;SDS011;37844;57.126;24.288;2023-07-29T10:40:44;2.42;;;1.20;;
51780;SDS011;37844;57.126;24.288;2023-07-29T10:43:32;3.35;;;1.48;;
51780;SDS011;37844;57.126;24.288;2023-07-29T10:46:19;1.95;;;1.38;;
51780;SDS011;37844;57.126;24.288;2023-07-29T10:49:04;2.03;;;1.27;;
51780;SDS011;37844;57.126;24.288;2023-07-29T10:51:48;3.22;;;1.63;;
51780;SDS011;37844;57.126;24.288;2023-07-29T10:54:45;2.55;;;1.50;;
51780;SDS011;37844;57.126;24.288;2023-07-29T10:57:35;4.43;;;1.67;;
51780;SDS011;37844;57.126;24.288;2023-07-29T11:00:21;2.35;;;1.58;;
51780;SDS011;37844;57.126;24.288;2023-07-29T11:03:06;6.50;;;1.63;;
51780;SDS011;37844;57.126;24.288;2023-07-29T11:05:51;3.50;;;1.75;;
51780;SDS011;37844;57.126;24.288;2023-07-29T11:08:36;7.40;;;1.92;;
51780;SDS011;37844;57.126;24.288;2023-07-29T11:11:20;3.35;;;1.45;;
51780;SDS011;37844;57.126;24.288;2023-07-29T11:14:04;3.53;;;1.77;;
51780;SDS011;37844;57.126;24.288;2023-07-29T11:16:49;5.07;;;1.33;;
51780;SDS011;37844;57.126;24.288;2023-07-29T11:19:33;2.47;;;1.42;;
51780;SDS011;37844;57.126;24.288;2023-07-29T11:22:19;2.65;;;1.63;;
51780;SDS011;37844;57.126;24.288;2023-07-29T11:25:04;8.32;;;1.75;;
51780;SDS011;37844;57.126;24.288;2023-07-29T11:27:51;1.67;;;1.58;;
51780;SDS011;37844;57.126;24.288;2023-07-29T11:30:40;1.58;;;1.45;;
51780;SDS011;37844;57.126;24.288;2023-07-29T11:33:24;5.40;;;2.80;;
51780;SDS011;37844;57.126;24.288;2023-07-29T11:36:18;2.90;;;1.48;;
51780;SDS011;37844;57.126;24.288;2023-07-29T11:39:09;4.57;;;1.08;;
51780;SDS011;37844;57.126;24.288;2023-07-29T11:41:53;4.35;;;1.67;;
51780;SDS011;37844;57.126;24.288;2023-07-29T11:44:37;4.32;;;1.33;;
51780;SDS011;37844;57.126;24.288;2023-07-29T11:47:22;6.15;;;1.80;;
51780;SDS011;37844;57.126;24.288;2023-07-29T11:50:06;2.35;;;1.38;;
51780;SDS011;37844;57.126;24.288;2023-07-29T11:52:58;1.40;;;1.15;;
51780;SDS011;37844;57.126;24.288;2023-07-29T11:55:42;3.33;;;1.63;;
51780;SDS011;37844;57.126;24.288;2023-07-29T11:58:26;6.55;;;1.45;;
51780;SDS011;37844;57.126;24.288;2023-07-29T12:01:10;5.03;;;1.40;;
51780;SDS011;37844;57.126;24.288;2023-07-29T12:03:55;2.25;;;1.30;;
51780;SDS011;37844;57.126;24.288;2023-07-29T12:06:40;1.85;;;1.25;;
51780;SDS011;37844;57.126;24.288;2023-07-29T12:09:25;1.80;;;1.30;;
51780;SDS011;37844;57.126;24.288;2023-07-29T12:12:11;1.65;;;1.30;;
51780;SDS011;37844;57.126;24.288;2023-07-29T12:14:56;3.40;;;1.45;;
51780;SDS011;37844;57.126;24.288;2023-07-29T12:17:47;3.22;;;1.25;;
51780;SDS011;37844;57.126;24.288;2023-07-29T12:20:31;4.35;;;1.15;;
51780;SDS011;37844;57.126;24.288;2023-07-29T12:23:16;2.08;;;1.30;;
51780;SDS011;37844;57.126;24.288;2023-07-29T12:26:00;2.53;;;1.52;;
51780;SDS011;37844;57.126;24.288;2023-07-29T12:28:45;1.83;;;1.33;;
51780;SDS011;37844;57.126;24.288;2023-07-29T12:31:31;2.38;;;1.35;;
51780;SDS011;37844;57.126;24.288;2023-07-29T12:34:19;3.88;;;1.35;;
51780;SDS011;37844;57.126;24.288;2023-07-29T12:37:04;3.10;;;1.40;;
51780;SDS011;37844;57.126;24.288;2023-07-29T12:39:49;2.65;;;1.63;;
51780;SDS011;37844;57.126;24.288;2023-07-29T12:42:33;7.35;;;2.30;;
51780;SDS011;37844;57.126;24.288;2023-07-29T12:45:18;3.78;;;1.75;;
51780;SDS011;37844;57.126;24.288;2023-07-29T12:48:02;1.40;;;1.20;;
51780;SDS011;37844;57.126;24.288;2023-07-29T12:50:47;4.93;;;1.95;;
51780;SDS011;37844;57.126;24.288;2023-07-29T12:53:31;3.17;;;1.58;;
51780;SDS011;37844;57.126;24.288;2023-07-29T12:56:15;4.38;;;1.25;;
51780;SDS011;37844;57.126;24.288;2023-07-29T12:59:00;1.85;;;1.13;;
51780;SDS011;37844;57.126;24.288;2023-07-29T13:01:44;2.72;;;1.20;;
51780;SDS011;37844;57.126;24.288;2023-07-29T13:04:28;3.65;;;1.33;;
51780;SDS011;37844;57.126;24.288;2023-07-29T13:07:12;2.60;;;1.52;;
51780;SDS011;37844;57.126;24.288;2023-07-29T13:09:56;1.67;;;1.20;;
51780;SDS011;37844;57.126;24.288;2023-07-29T13:12:40;8.63;;;1.45;;
51780;SDS011;37844;57.126;24.288;2023-07-29T13:15:24;3.72;;;1.65;;
51780;SDS011;37844;57.126;24.288;2023-07-29T13:18:08;7.97;;;1.58;;
51780;SDS011;37844;57.126;24.288;2023-07-29T13:20:52;3.17;;;1.95;;
51780;SDS011;37844;57.126;24.288;2023-07-29T13:23:37;3.70;;;1.77;;
51780;SDS011;37844;57.126;24.288;2023-07-29T13:26:21;3.20;;;1.98;;
51780;SDS011;37844;57.126;24.288;2023-07-29T13:29:05;5.05;;;1.63;;
51780;SDS011;37844;57.126;24.288;2023-07-29T13:31:48;4.03;;;1.35;;
51780;SDS011;37844;57.126;24.288;2023-07-29T13:34:33;2.60;;;1.20;;
51780;SDS011;37844;57.126;24.288;2023-07-29T13:37:18;1.33;;;1.20;;
51780;SDS011;37844;57.126;24.288;2023-07-29T13:40:02;3.95;;;1.42;;
51780;SDS011;37844;57.126;24.288;2023-07-29T13:42:46;2.13;;;1.20;;
51780;SDS011;37844;57.126;24.288;2023-07-29T13:45:30;4.70;;;1.63;;
51780;SDS011;37844;57.126;24.288;2023-07-29T13:48:15;3.25;;;1.38;;
51780;SDS011;37844;57.126;24.288;2023-07-29T13:51:00;3.75;;;1.48;;
51780;SDS011;37844;57.126;24.288;2023-07-29T13:53:43;1.55;;;1.10;;
51780;SDS011;37844;57.126;24.288;2023-07-29T13:56:27;4.85;;;1.50;;
51780;SDS011;37844;57.126;24.288;2023-07-29T13:59:11;0.93;;;0.93;;
51780;SDS011;37844;57.126;24.288;2023-07-29T14:01:55;2.03;;;1.27;;
51780;SDS011;37844;57.126;24.288;2023-07-29T14:04:39;6.30;;;2.38;;
51780;SDS011;37844;57.126;24.288;2023-07-29T14:07:23;3.15;;;1.35;;
51780;SDS011;37844;57.126;24.288;2023-07-29T14:10:07;4.63;;;1.80;;
51780;SDS011;37844;57.126;24.288;2023-07-29T14:12:52;1.85;;;1.27;;
51780;SDS011;37844;57.126;24.288;2023-07-29T14:15:35;1.85;;;1.08;;
51780;SDS011;37844;57.126;24.288;2023-07-29T14:18:20;1.73;;;1.27;;
51780;SDS011;37844;57.126;24.288;2023-07-29T14:21:12;1.30;;;1.05;;
51780;SDS011;37844;57.126;24.288;2023-07-29T14:24:09;6.93;;;1.58;;
51780;SDS011;37844;57.126;24.288;2023-07-29T14:26:53;0.93;;;0.90;;
51780;SDS011;37844;57.126;24.288;2023-07-29T14:29:37;2.95;;;1.10;;
51780;SDS011;37844;57.126;24.288;2023-07-29T14:32:21;2.67;;;0.93;;
51780;SDS011;37844;57.126;24.288;2023-07-29T14:35:05;1.67;;;1.25;;
51780;SDS011;37844;57.126;24.288;2023-07-29T14:37:50;2.65;;;1.50;;
51780;SDS011;37844;57.126;24.288;2023-07-29T14:40:34;2.72;;;1.33;;
51780;SDS011;37844;57.126;24.288;2023-07-29T14:43:18;4.50;;;2.25;;
51780;SDS011;37844;57.126;24.288;2023-07-29T14:46:02;4.63;;;2.15;;
51780;SDS011;37844;57.126;24.288;2023-07-29T14:48:46;3.40;;;1.92;;
51780;SDS011;37844;57.126;24.288;2023-07-29T14:51:30;3.10;;;1.30;;
51780;SDS011;37844;57.126;24.288;2023-07-29T14:54:15;2.35;;;1.20;;
51780;SDS011;37844;57.126;24.288;2023-07-29T14:56:59;3.92;;;1.38;;
51780;SDS011;37844;57.126;24.288;2023-07-29T14:59:44;5.55;;;1.15;;
51780;SDS011;37844;57.126;24.288;2023-07-29T15:02:29;0.88;;;0.88;;
51780;SDS011;37844;57.126;24.288;2023-07-29T15:05:13;6.13;;;2.22;;
51780;SDS011;37844;57.126;24.288;2023-07-29T15:07:58;2.63;;;1.50;;
51780;SDS011;37844;57.126;24.288;2023-07-29T15:10:48;4.18;;;1.80;;
51780;SDS011;37844;57.126;24.288;2023-07-29T15:13:32;3.55;;;1.23;;
51780;SDS011;37844;57.126;24.288;2023-07-29T15:16:16;4.18;;;1.27;;
51780;SDS011;37844;57.126;24.288;2023-07-29T15:19:01;5.75;;;1.35;;
51780;SDS011;37844;57.126;24.288;2023-07-29T15:21:48;1.95;;;1.27;;
51780;SDS011;37844;57.126;24.288;2023-07-29T15:24:32;1.08;;;1.00;;
51780;SDS011;37844;57.126;24.288;2023-07-29T15:27:16;1.77;;;1.17;;
51780;SDS011;37844;57.126;24.288;2023-07-29T15:30:00;2.80;;;1.40;;
51780;SDS011;37844;57.126;24.288;2023-07-29T15:32:45;4.10;;;1.67;;
51780;SDS011;37844;57.126;24.288;2023-07-29T15:35:28;3.15;;;1.40;;
51780;SDS011;37844;57.126;24.288;2023-07-29T15:38:12;4.68;;;1.05;;
51780;SDS011;37844;57.126;24.288;2023-07-29T15:40:56;1.63;;;1.10;;
51780;SDS011;37844;57.126;24.288;2023-07-29T15:43:41;3.65;;;1.40;;
51780;SDS011;37844;57.126;24.288;2023-07-29T15:46:24;1.20;;;1.10;;
51780;SDS011;37844;57.126;24.288;2023-07-29T15:49:08;2.85;;;1.52;;
51780;SDS011;37844;57.126;24.288;2023-07-29T15:51:52;3.53;;;0.95;;
51780;SDS011;37844;57.126;24.288;2023-07-29T15:54:37;1.45;;;1.00;;
51780;SDS011;37844;57.126;24.288;2023-07-29T15:57:21;1.67;;;1.20;;
51780;SDS011;37844;57.126;24.288;2023-07-29T16:00:05;1.35;;;1.17;;
51780;SDS011;37844;57.126;24.288;2023-07-29T16:02:50;3.60;;;1.58;;
51780;SDS011;37844;57.126;24.288;2023-07-29T16:05:35;4.13;;;2.30;;
51780;SDS011;37844;57.126;24.288;2023-07-29T16:08:19;1.42;;;1.10;;
51780;SDS011;37844;57.126;24.288;2023-07-29T16:11:03;2.53;;;1.30;;
51780;SDS011;37844;57.126;24.288;2023-07-29T16:13:47;1.35;;;1.10;;
51780;SDS011;37844;57.126;24.288;2023-07-29T16:16:31;1.17;;;1.05;;
51780;SDS011;37844;57.126;24.288;2023-07-29T16:19:22;2.17;;;1.20;;